Terminal Aerodrome Forecast
Issued by NWS

Home | Current Version | Previous Version | Text Only | Print | Product List | Glossary On
Versions: 1 2 3 4 5 6 7 8 9 10 11 12 13 14 15 16 17 18 19 20 21 22 23 24 25 26 27 28 29 30 31 32 33 34
140
FTUS41 KBOX 050537
TAFBAF
TAF
KBAF 050537Z 0506/0606 00000KT P6SM SKC
     FM050800 00000KT P6SM BKN110
     FM051000 00000KT 2SM -SN OVC040
     FM051200 00000KT 3SM -SN OVC015
     FM051400 VRB03KT 3SM BR VCSH OVC015
     FM051700 VRB03KT P6SM BKN015
     FM052200 28004KT P6SM SCT015=

USA.gov is the U.S. government's official web portal to all federal, state and local government web resources and services.